createdAt,value
2019-03-29T00:01:50.326Z,41.40
2019-03-29T00:04:21.281Z,45.33
2019-03-29T00:06:51.613Z,42.20
2019-03-29T00:09:21.513Z,43.13
2019-03-29T00:11:51.725Z,45.17
2019-03-29T00:14:23.661Z,40.20
2019-03-29T00:16:54.377Z,39.77
2019-03-29T00:19:25.671Z,42.80
2019-03-29T00:21:56.072Z,32.60
2019-03-29T00:24:25.951Z,51.77
2019-03-29T00:26:55.908Z,35.60
2019-03-29T00:29:26.308Z,44.57
2019-03-29T00:31:56.517Z,36.67
2019-03-29T00:34:27.469Z,44.50
2019-03-29T00:36:58.309Z,48.53
2019-03-29T00:39:28.381Z,48.30
2019-03-29T00:41:59.046Z,56.47
2019-03-29T00:44:29.235Z,50.27
2019-03-29T00:46:59.697Z,56.73
2019-03-29T00:49:30.269Z,53.07
2019-03-29T00:52:00.448Z,42.23
2019-03-29T00:54:30.717Z,48.27
2019-03-29T00:57:01.729Z,51.97
2019-03-29T00:59:32.147Z,52.30
2019-03-29T01:02:03.505Z,51.70
2019-03-29T01:04:33.418Z,49.17
2019-03-29T01:07:04.229Z,51.10
2019-03-29T01:09:35.374Z,48.40
2019-03-29T01:12:06.962Z,48.67
2019-03-29T01:14:38.374Z,50.47
2019-03-29T01:17:08.994Z,46.27
2019-03-29T01:19:39.048Z,45.73
2019-03-29T01:22:09.373Z,42.50
2019-03-29T01:24:40.250Z,46.47
2019-03-29T01:27:10.802Z,33.87
2019-03-29T01:29:41.782Z,40.70
2019-03-29T01:32:12.114Z,39.33
2019-03-29T01:34:43.127Z,43.07
2019-03-29T01:37:14.119Z,44.23
2019-03-29T01:39:44.750Z,40.57
2019-03-29T01:42:15.035Z,43.40
2019-03-29T01:44:45.483Z,42.87
2019-03-29T01:47:15.749Z,45.40
2019-03-29T01:49:46.437Z,47.10
2019-03-29T01:52:16.985Z,47.10
2019-03-29T01:54:47.526Z,45.97
2019-03-29T01:57:18.459Z,47.30
2019-03-29T01:59:48.862Z,45.33
2019-03-29T02:02:20.268Z,45.20
2019-03-29T02:04:51.951Z,40.80
2019-03-29T02:07:22.483Z,41.30
2019-03-29T02:09:53.867Z,45.13
2019-03-29T02:12:24.502Z,49.07
2019-03-29T02:14:54.792Z,42.50
2019-03-29T02:17:25.421Z,46.50
2019-03-29T02:19:55.588Z,46.77
2019-03-29T02:22:26.229Z,46.63
2019-03-29T02:24:56.462Z,48.77
2019-03-29T02:27:27.236Z,43.90
2019-03-29T02:29:59.485Z,45.73
2019-03-29T02:32:29.774Z,50.40
2019-03-29T02:35:00.490Z,42.53
2019-03-29T02:37:31.392Z,47.93
2019-03-29T02:40:03.971Z,48.73
2019-03-29T02:42:34.610Z,50.67
2019-03-29T02:45:04.846Z,45.77
2019-03-29T02:47:34.822Z,47.30
2019-03-29T02:50:05.918Z,39.70
2019-03-29T02:52:36.455Z,42.70
2019-03-29T02:55:06.673Z,47.47
2019-03-29T02:57:37.734Z,45.13
2019-03-29T03:00:08.943Z,44.97
2019-03-29T03:02:39.530Z,42.23
2019-03-29T03:05:10.330Z,47.83
2019-03-29T03:07:41.043Z,46.93
2019-03-29T03:10:11.907Z,43.50
2019-03-29T03:12:42.245Z,43.53
2019-03-29T03:15:13.283Z,50.10
2019-03-29T03:17:44.350Z,47.53
2019-03-29T03:20:15.853Z,46.00
2019-03-29T03:22:46.635Z,52.53
2019-03-29T03:25:17.667Z,53.10
2019-03-29T03:27:48.535Z,50.03
2019-03-29T03:30:19.416Z,48.60
2019-03-29T03:32:50.491Z,34.67
2019-03-29T03:35:20.925Z,46.47
2019-03-29T03:37:50.953Z,47.50
2019-03-29T03:40:21.720Z,40.27
2019-03-29T03:42:52.149Z,43.13
2019-03-29T03:45:22.066Z,46.77
2019-03-29T03:47:53.137Z,39.73
2019-03-29T03:50:37.256Z,43.43
2019-03-29T03:53:08.143Z,33.00
2019-03-29T03:55:39.636Z,28.60
2019-03-29T03:58:10.791Z,36.10
2019-03-29T04:00:57.705Z,34.80
2019-03-29T04:03:28.378Z,43.07
2019-03-29T04:05:59.104Z,39.60
2019-03-29T04:08:29.168Z,36.93
2019-03-29T04:11:00.299Z,32.47
2019-03-29T04:13:30.614Z,42.70
2019-03-29T04:16:00.989Z,45.63
2019-03-29T04:18:31.805Z,34.17
2019-03-29T04:21:02.158Z,41.43
2019-03-29T04:23:32.767Z,41.43
2019-03-29T04:26:03.438Z,41.43
2019-03-29T04:28:33.829Z,43.60
2019-03-29T04:31:04.061Z,40.60
2019-03-29T04:33:34.615Z,33.70
2019-03-29T04:36:05.182Z,35.53
2019-03-29T04:38:35.117Z,36.90
2019-03-29T04:41:05.972Z,44.93
2019-03-29T04:43:36.619Z,39.53
2019-03-29T04:46:07.140Z,35.67
2019-03-29T04:48:37.514Z,43.40
2019-03-29T04:51:08.186Z,28.40
2019-03-29T04:53:38.514Z,36.17
2019-03-29T04:56:08.831Z,40.47
2019-03-29T04:58:39.468Z,45.80
2019-03-29T05:01:09.917Z,36.13
2019-03-29T05:03:40.738Z,44.47
2019-03-29T05:06:11.081Z,41.80
2019-03-29T05:08:41.691Z,32.07
2019-03-29T05:11:11.997Z,38.97
2019-03-29T05:13:42.744Z,32.83
2019-03-29T05:16:13.309Z,50.53
2019-03-29T05:18:44.037Z,37.70
2019-03-29T05:21:14.306Z,30.53
2019-03-29T05:23:45.206Z,36.37
2019-03-29T05:26:15.467Z,32.90
2019-03-29T05:28:45.463Z,25.93
2019-03-29T05:31:15.665Z,46.33
2019-03-29T05:33:45.986Z,42.80
2019-03-29T05:36:16.400Z,44.13
2019-03-29T05:38:46.797Z,30.47
2019-03-29T05:41:17.235Z,41.70
2019-03-29T05:43:48.037Z,42.50
2019-03-29T05:46:18.573Z,37.30
2019-03-29T05:48:49.801Z,36.73
2019-03-29T05:51:20.344Z,28.37
2019-03-29T05:53:51.386Z,36.07
2019-03-29T05:56:21.631Z,36.00
2019-03-29T05:58:51.612Z,30.87
2019-03-29T06:01:21.905Z,39.33
2019-03-29T06:03:52.726Z,37.37
2019-03-29T06:06:23.286Z,32.10
2019-03-29T06:08:53.929Z,27.40
2019-03-29T06:11:26.417Z,38.97
2019-03-29T06:13:57.171Z,34.30
2019-03-29T06:16:38.375Z,31.47
2019-03-29T06:19:00.561Z,35.10
2019-03-29T06:21:30.592Z,40.77
2019-03-29T06:24:01.214Z,33.77
2019-03-29T06:26:31.827Z,37.53
2019-03-29T06:29:01.849Z,26.80
2019-03-29T06:31:32.224Z,29.40
2019-03-29T06:34:03.430Z,36.57
2019-03-29T06:36:34.191Z,35.93
2019-03-29T06:39:06.140Z,34.00
2019-03-29T06:41:36.752Z,29.97
2019-03-29T06:44:06.933Z,26.30
2019-03-29T06:46:37.712Z,30.43
2019-03-29T06:49:07.930Z,33.43
2019-03-29T06:51:38.214Z,22.20
2019-03-29T06:54:08.764Z,31.70
2019-03-29T06:56:39.427Z,32.43
2019-03-29T06:59:09.725Z,31.00
2019-03-29T07:01:40.328Z,30.30
2019-03-29T07:04:10.636Z,29.50
2019-03-29T07:06:41.338Z,42.37
2019-03-29T07:09:11.289Z,28.80
2019-03-29T07:11:41.473Z,29.07
2019-03-29T07:14:11.562Z,24.87
2019-03-29T07:16:41.774Z,31.23
2019-03-29T07:19:15.112Z,23.20
2019-03-29T07:21:45.563Z,28.87
2019-03-29T07:24:15.532Z,29.63
2019-03-29T07:26:46.290Z,21.00
2019-03-29T07:29:17.437Z,25.20
2019-03-29T07:31:47.380Z,27.10
2019-03-29T07:34:17.821Z,16.40
2019-03-29T07:36:48.208Z,26.07
2019-03-29T07:39:19.405Z,18.10
2019-03-29T07:41:49.677Z,15.43
2019-03-29T07:44:19.649Z,20.23
2019-03-29T07:46:51.034Z,20.30
2019-03-29T07:49:20.994Z,19.80
2019-03-29T07:51:51.474Z,24.57
2019-03-29T07:54:21.765Z,17.50
2019-03-29T07:56:52.373Z,19.27
2019-03-29T07:59:23.354Z,16.93
2019-03-29T08:01:53.822Z,14.10
2019-03-29T08:04:24.225Z,10.80
2019-03-29T08:06:55.274Z,12.33
2019-03-29T08:09:28.780Z,10.17
2019-03-29T08:12:02.610Z,15.43
2019-03-29T08:14:32.801Z,11.80
2019-03-29T08:17:03.914Z,13.37
2019-03-29T08:19:37.112Z,16.20
2019-03-29T08:22:06.250Z,16.50
2019-03-29T08:24:36.663Z,15.67
2019-03-29T08:27:07.468Z,15.67
2019-03-29T08:29:37.475Z,17.70
2019-03-29T08:32:07.790Z,18.50
2019-03-29T08:34:38.410Z,17.10
2019-03-29T08:37:09.368Z,21.10
2019-03-29T08:39:39.993Z,13.13
2019-03-29T08:42:10.650Z,19.00
2019-03-29T08:44:41.566Z,26.23
2019-03-29T08:47:11.838Z,17.33
2019-03-29T08:49:42.113Z,15.67
2019-03-29T08:52:12.398Z,22.07
2019-03-29T08:54:42.768Z,18.03
2019-03-29T08:57:13.091Z,16.40
2019-03-29T08:59:43.959Z,17.53
2019-03-29T09:02:14.003Z,20.77
2019-03-29T09:04:44.758Z,18.60
2019-03-29T09:07:16.134Z,19.40
2019-03-29T09:09:47.176Z,15.97
2019-03-29T09:12:18.076Z,18.97
2019-03-29T09:14:48.263Z,19.17
2019-03-29T09:17:18.293Z,13.20
2019-03-29T09:19:48.292Z,18.10
2019-03-29T09:22:20.205Z,14.37
2019-03-29T09:24:51.187Z,16.57
2019-03-29T09:27:21.778Z,19.23
2019-03-29T09:29:55.441Z,22.43
2019-03-29T09:32:26.053Z,16.23
2019-03-29T09:34:56.780Z,17.33
2019-03-29T09:37:27.054Z,16.80
2019-03-29T09:39:57.036Z,14.97
2019-03-29T09:42:29.527Z,21.83
2019-03-29T09:44:59.823Z,14.23
2019-03-29T09:47:38.281Z,19.37
2019-03-29T09:50:02.751Z,13.50
2019-03-29T09:52:33.966Z,16.00
2019-03-29T09:55:04.606Z,15.60
2019-03-29T09:57:37.702Z,13.67
2019-03-29T10:00:19.238Z,12.97
2019-03-29T10:02:40.852Z,11.80
2019-03-29T10:05:11.746Z,15.37
2019-03-29T10:07:42.053Z,15.77
2019-03-29T10:10:13.013Z,11.50
2019-03-29T10:12:44.159Z,14.97
2019-03-29T10:15:15.326Z,15.60
2019-03-29T10:17:46.213Z,9.63
2019-03-29T10:20:16.714Z,13.57
2019-03-29T10:22:47.451Z,12.90
2019-03-29T10:25:19.995Z,13.00
2019-03-29T10:27:50.444Z,12.87
2019-03-29T10:30:40.989Z,9.43
2019-03-29T10:33:10.983Z,14.67
2019-03-29T10:35:51.458Z,14.80
2019-03-29T10:38:17.971Z,12.50
2019-03-29T10:40:47.219Z,12.57
2019-03-29T10:43:18.058Z,12.10
2019-03-29T10:45:51.242Z,11.40
2019-03-29T10:48:21.597Z,12.57
2019-03-29T10:50:52.203Z,13.43
2019-03-29T10:53:22.552Z,13.23
2019-03-29T10:55:53.284Z,13.50
2019-03-29T10:58:23.288Z,13.00
2019-03-29T11:00:53.442Z,13.63
2019-03-29T11:03:28.432Z,9.87
2019-03-29T11:05:57.557Z,11.50
2019-03-29T11:08:28.679Z,10.80
2019-03-29T11:10:59.039Z,14.90
2019-03-29T11:13:29.586Z,12.60
2019-03-29T11:16:00.246Z,13.70
2019-03-29T11:18:30.838Z,13.13
2019-03-29T11:21:01.454Z,14.20
2019-03-29T11:23:32.239Z,12.00
2019-03-29T11:26:05.620Z,11.60
2019-03-29T11:28:35.904Z,12.60
2019-03-29T11:31:06.494Z,13.37
2019-03-29T11:33:36.596Z,11.60
2019-03-29T11:36:07.181Z,13.00
2019-03-29T11:38:37.481Z,15.13
2019-03-29T11:41:07.902Z,15.87
2019-03-29T11:43:39.074Z,14.90
2019-03-29T11:46:09.993Z,14.40
2019-03-29T11:48:40.980Z,11.90
2019-03-29T11:51:19.236Z,11.10
2019-03-29T11:53:44.578Z,13.97
2019-03-29T11:56:15.409Z,10.63
2019-03-29T11:58:46.063Z,10.00
2019-03-29T12:01:16.907Z,15.23
2019-03-29T12:03:48.237Z,13.83
2019-03-29T12:06:18.587Z,14.37
2019-03-29T12:08:49.317Z,11.60
2019-03-29T12:11:19.946Z,11.90
2019-03-29T12:13:50.489Z,14.63
2019-03-29T12:16:20.407Z,14.20
2019-03-29T12:18:51.332Z,15.83
2019-03-29T12:21:21.521Z,12.63
2019-03-29T12:23:51.603Z,14.10
2019-03-29T12:26:21.481Z,15.70
2019-03-29T12:28:52.529Z,15.53
2019-03-29T12:31:22.564Z,12.90
2019-03-29T12:33:52.870Z,16.37
2019-03-29T12:36:23.679Z,9.23
2019-03-29T12:38:54.734Z,13.63
2019-03-29T12:41:25.347Z,14.83
2019-03-29T12:43:56.176Z,14.47
2019-03-29T12:46:26.925Z,13.53
2019-03-29T12:48:57.528Z,9.20
2019-03-29T12:51:28.245Z,11.67
2019-03-29T12:53:58.598Z,15.77
2019-03-29T12:56:28.529Z,15.50
2019-03-29T12:58:58.978Z,14.20
2019-03-29T13:01:39.363Z,12.27
2019-03-29T13:04:01.521Z,13.73
2019-03-29T13:06:32.236Z,12.13
2019-03-29T13:09:02.521Z,10.90
2019-03-29T13:11:32.533Z,13.27
2019-03-29T13:14:10.291Z,11.80
2019-03-29T13:16:34.809Z,9.73
2019-03-29T13:19:05.479Z,12.47
2019-03-29T13:21:38.770Z,14.00
2019-03-29T13:24:07.845Z,13.17
2019-03-29T13:26:38.516Z,10.80
2019-03-29T13:29:08.855Z,9.53
2019-03-29T13:31:39.428Z,10.67
2019-03-29T13:34:09.925Z,11.10
2019-03-29T13:36:40.203Z,10.03
2019-03-29T13:39:10.730Z,13.83
2019-03-29T13:41:41.126Z,11.00
2019-03-29T13:44:23.226Z,11.43
2019-03-29T13:46:44.169Z,10.60
2019-03-29T13:49:14.365Z,9.03
2019-03-29T13:51:45.246Z,9.30
2019-03-29T13:54:15.563Z,12.00
2019-03-29T13:56:45.603Z,11.77
2019-03-29T13:59:16.646Z,13.13
2019-03-29T14:01:47.021Z,12.50
2019-03-29T14:04:17.263Z,11.57
2019-03-29T14:06:47.599Z,12.83
2019-03-29T14:09:18.565Z,12.27
2019-03-29T14:11:48.500Z,10.53
2019-03-29T14:14:18.535Z,8.30
2019-03-29T14:16:48.446Z,11.77
2019-03-29T14:19:19.226Z,11.57
2019-03-29T14:21:49.201Z,9.37
2019-03-29T14:24:19.866Z,10.43
2019-03-29T14:26:50.210Z,12.60
2019-03-29T14:29:21.023Z,13.53
2019-03-29T14:31:54.042Z,12.50
2019-03-29T14:34:23.647Z,12.03
2019-03-29T14:36:53.665Z,7.33
2019-03-29T14:39:23.829Z,8.57
2019-03-29T14:41:53.762Z,10.30
2019-03-29T14:44:24.821Z,11.13
2019-03-29T14:46:55.011Z,8.23
2019-03-29T14:49:25.295Z,12.20
2019-03-29T14:51:55.661Z,8.30
2019-03-29T14:54:25.881Z,7.33
2019-03-29T14:56:56.564Z,9.07
2019-03-29T14:59:30.039Z,7.90
2019-03-29T15:02:00.437Z,9.37
2019-03-29T15:04:31.009Z,7.53
2019-03-29T15:07:01.482Z,8.47
2019-03-29T15:09:32.349Z,9.30
2019-03-29T15:12:02.286Z,8.27
2019-03-29T15:14:33.300Z,11.40
2019-03-29T15:17:03.577Z,9.93
2019-03-29T15:19:33.941Z,9.73
2019-03-29T15:22:04.159Z,13.57
2019-03-29T15:24:35.266Z,10.80
2019-03-29T15:27:06.044Z,10.77
2019-03-29T15:29:36.803Z,10.33
2019-03-29T15:32:06.833Z,13.13
2019-03-29T15:34:37.812Z,12.10
2019-03-29T15:37:10.176Z,11.90
2019-03-29T15:39:40.338Z,14.70
2019-03-29T15:42:10.488Z,13.73
2019-03-29T15:44:41.743Z,11.13
2019-03-29T15:47:12.240Z,13.37
2019-03-29T15:49:55.371Z,10.00
2019-03-29T15:52:14.193Z,13.97
2019-03-29T15:54:44.105Z,12.20
2019-03-29T15:57:14.912Z,11.70
2019-03-29T15:59:45.637Z,12.57
2019-03-29T16:02:16.439Z,17.50
2019-03-29T16:04:47.246Z,14.57
2019-03-29T16:07:17.864Z,13.00
2019-03-29T16:09:48.497Z,13.73
2019-03-29T16:12:21.381Z,12.93
2019-03-29T16:14:51.259Z,8.97
2019-03-29T16:17:21.926Z,12.60
2019-03-29T16:19:52.919Z,12.00
2019-03-29T16:22:23.997Z,11.17
2019-03-29T16:24:54.325Z,12.17
2019-03-29T16:27:25.289Z,13.17
2019-03-29T16:29:56.813Z,11.60
2019-03-29T16:32:28.086Z,8.50
2019-03-29T16:34:58.389Z,8.60
2019-03-29T16:37:29.013Z,11.27
2019-03-29T16:39:59.626Z,10.13
2019-03-29T16:42:29.972Z,9.60
2019-03-29T16:45:00.342Z,13.60
2019-03-29T16:47:30.384Z,9.73
2019-03-29T16:50:01.176Z,13.23
2019-03-29T16:52:31.396Z,10.30
2019-03-29T16:55:12.514Z,11.07
2019-03-29T16:57:33.644Z,11.83
2019-03-29T17:00:04.418Z,11.17
2019-03-29T17:02:34.668Z,10.87
2019-03-29T17:05:04.970Z,15.97
2019-03-29T17:07:35.193Z,11.07
2019-03-29T17:10:06.137Z,11.60
2019-03-29T17:12:36.541Z,12.07
2019-03-29T17:15:07.372Z,12.30
2019-03-29T17:17:37.780Z,9.17
2019-03-29T17:20:09.337Z,11.67
2019-03-29T17:22:42.882Z,11.93
2019-03-29T17:25:11.954Z,10.57
2019-03-29T17:27:42.570Z,10.10
2019-03-29T17:30:16.581Z,13.50
2019-03-29T17:32:46.729Z,11.80
2019-03-29T17:35:16.665Z,11.53
2019-03-29T17:37:47.711Z,15.53
2019-03-29T17:40:18.115Z,11.10
2019-03-29T17:42:49.333Z,13.63
2019-03-29T17:45:19.942Z,14.33
2019-03-29T17:47:50.649Z,11.07
2019-03-29T17:50:21.001Z,13.23
2019-03-29T17:52:51.706Z,12.50
2019-03-29T17:55:22.337Z,15.83
2019-03-29T17:57:52.846Z,13.27
2019-03-29T18:00:24.385Z,15.60
2019-03-29T18:02:55.232Z,11.23
2019-03-29T18:05:25.711Z,15.40
2019-03-29T18:07:55.864Z,14.03
2019-03-29T18:10:26.072Z,14.43
2019-03-29T18:12:56.841Z,11.90
2019-03-29T18:15:27.508Z,14.10
2019-03-29T18:17:57.875Z,16.20
2019-03-29T18:20:28.118Z,14.73
2019-03-29T18:22:58.571Z,13.83
2019-03-29T18:25:29.144Z,16.53
2019-03-29T18:28:00.143Z,20.53
2019-03-29T18:30:39.112Z,15.07
2019-03-29T18:33:09.709Z,14.00
2019-03-29T18:35:40.747Z,15.80
2019-03-29T18:38:11.800Z,17.40
2019-03-29T18:40:41.988Z,15.20
2019-03-29T18:43:12.740Z,15.07
2019-03-29T18:45:43.353Z,19.83
2019-03-29T18:48:14.096Z,15.60
2019-03-29T18:50:44.656Z,19.83
2019-03-29T18:53:14.961Z,18.13
2019-03-29T18:55:46.310Z,17.37
2019-03-29T18:58:17.073Z,14.50
2019-03-29T19:00:47.825Z,14.60
2019-03-29T19:03:18.533Z,14.17
2019-03-29T19:05:48.957Z,18.70
2019-03-29T19:08:19.897Z,15.87
2019-03-29T19:10:50.093Z,14.70
2019-03-29T19:13:20.442Z,16.30
2019-03-29T19:15:51.189Z,19.57
2019-03-29T19:18:21.849Z,14.33
2019-03-29T19:20:52.367Z,16.37
2019-03-29T19:23:22.249Z,17.10
2019-03-29T19:25:52.665Z,15.47
2019-03-29T19:28:23.566Z,13.17
2019-03-29T19:30:54.080Z,21.13
2019-03-29T19:33:24.776Z,18.87
2019-03-29T19:35:55.553Z,21.73
2019-03-29T19:38:25.864Z,19.13
2019-03-29T19:40:56.197Z,19.50
2019-03-29T19:43:26.288Z,17.00
2019-03-29T19:45:57.218Z,21.73
2019-03-29T19:48:28.247Z,13.90
2019-03-29T19:50:59.539Z,18.83
2019-03-29T19:53:29.941Z,21.57
2019-03-29T19:56:01.077Z,21.10
2019-03-29T19:58:31.809Z,15.37
2019-03-29T20:01:01.768Z,19.60
2019-03-29T20:03:32.294Z,19.23
2019-03-29T20:06:03.349Z,16.43
2019-03-29T20:08:35.177Z,17.03
2019-03-29T20:11:05.998Z,18.60
2019-03-29T20:13:36.256Z,15.93
2019-03-29T20:16:06.790Z,22.67
2019-03-29T20:18:37.326Z,17.27
2019-03-29T20:21:07.926Z,22.10
2019-03-29T20:23:38.438Z,14.13
2019-03-29T20:26:08.565Z,20.03
2019-03-29T20:28:38.940Z,13.63
2019-03-29T20:31:09.557Z,22.03
2019-03-29T20:33:40.633Z,17.00
2019-03-29T20:36:11.136Z,17.70
2019-03-29T20:38:41.348Z,17.37
2019-03-29T20:41:11.979Z,18.67
2019-03-29T20:43:42.615Z,20.67
2019-03-29T20:46:13.966Z,17.90
2019-03-29T20:48:44.194Z,15.97
2019-03-29T20:51:14.457Z,18.40
2019-03-29T20:53:44.688Z,19.20
2019-03-29T20:56:15.049Z,13.30
2019-03-29T20:58:45.500Z,18.40
2019-03-29T21:01:16.605Z,20.70
2019-03-29T21:03:46.674Z,20.20
2019-03-29T21:06:16.949Z,22.40
2019-03-29T21:08:48.287Z,19.63
2019-03-29T21:11:18.529Z,12.90
2019-03-29T21:13:49.167Z,22.47
2019-03-29T21:16:19.611Z,20.53
2019-03-29T21:18:49.980Z,17.70
2019-03-29T21:21:20.290Z,22.90
2019-03-29T21:23:50.753Z,22.23
2019-03-29T21:26:21.237Z,20.00
2019-03-29T21:28:53.081Z,22.77
2019-03-29T21:31:23.851Z,19.43
2019-03-29T21:33:54.458Z,17.23
2019-03-29T21:36:25.199Z,23.83
2019-03-29T21:38:55.790Z,14.47
2019-03-29T21:41:27.361Z,20.27
2019-03-29T21:43:57.241Z,17.30
2019-03-29T21:46:28.241Z,19.00
2019-03-29T21:48:58.533Z,15.77
2019-03-29T21:51:29.137Z,17.33
2019-03-29T21:53:59.832Z,22.40
2019-03-29T21:56:30.700Z,17.50
2019-03-29T21:59:01.474Z,18.77
2019-03-29T22:01:32.847Z,22.27
2019-03-29T22:04:03.487Z,16.67
2019-03-29T22:06:33.704Z,20.73
2019-03-29T22:09:06.202Z,19.80
2019-03-29T22:11:36.578Z,22.50
2019-03-29T22:14:06.517Z,20.37
2019-03-29T22:16:36.738Z,20.90
2019-03-29T22:19:07.245Z,23.50
2019-03-29T22:21:38.211Z,22.53
2019-03-29T22:24:08.849Z,18.03
2019-03-29T22:26:39.740Z,16.03
2019-03-29T22:29:09.698Z,16.77
2019-03-29T22:31:40.445Z,18.23
2019-03-29T22:34:10.650Z,14.80
2019-03-29T22:36:41.437Z,16.77
2019-03-29T22:39:11.788Z,19.30
2019-03-29T22:41:42.350Z,18.67
2019-03-29T22:44:13.186Z,13.33
2019-03-29T22:46:44.173Z,17.50
2019-03-29T22:49:14.528Z,20.40
2019-03-29T22:51:45.264Z,16.80
2019-03-29T22:54:15.899Z,20.00
2019-03-29T22:56:46.640Z,16.80
2019-03-29T22:59:17.136Z,20.30
2019-03-29T23:01:48.769Z,21.00
2019-03-29T23:04:18.633Z,18.83
2019-03-29T23:06:48.952Z,16.60
2019-03-29T23:09:21.551Z,18.70
2019-03-29T23:11:52.838Z,17.80
2019-03-29T23:14:23.845Z,13.17
2019-03-29T23:16:54.641Z,15.37
2019-03-29T23:19:25.165Z,17.33
2019-03-29T23:21:55.824Z,22.87
2019-03-29T23:24:26.532Z,25.97
2019-03-29T23:26:57.046Z,23.33
2019-03-29T23:29:27.268Z,23.13
2019-03-29T23:31:57.863Z,21.57
2019-03-29T23:34:28.170Z,17.33
2019-03-29T23:36:58.831Z,23.17
2019-03-29T23:39:29.113Z,21.47
2019-03-29T23:41:59.684Z,19.00
2019-03-29T23:44:30.324Z,19.43
2019-03-29T23:47:00.887Z,21.77
2019-03-29T23:49:31.053Z,18.03
2019-03-29T23:52:01.266Z,25.53
2019-03-29T23:54:32.010Z,19.57
2019-03-29T23:57:02.292Z,19.13
2019-03-29T23:59:33.040Z,19.97
